createdAt,value
2019-01-10T00:08:54.649Z,2.40
2019-01-10T00:14:13.180Z,2.70
2019-01-10T00:19:32.135Z,2.73
2019-01-10T00:24:50.645Z,2.90
2019-01-10T00:35:59.027Z,3.07
2019-01-10T00:41:17.560Z,2.87
2019-01-10T00:46:36.176Z,2.80
2019-01-10T00:51:54.713Z,3.23
2019-01-10T00:57:13.178Z,2.70
2019-01-10T01:02:31.712Z,3.17
2019-01-10T01:07:50.339Z,3.10
2019-01-10T01:13:08.946Z,2.93
2019-01-10T01:18:27.543Z,3.27
2019-01-10T01:23:46.071Z,2.63
2019-01-10T01:29:04.769Z,2.67
2019-01-10T01:40:34.434Z,2.92
2019-01-10T01:45:53.119Z,3.10
2019-01-10T01:51:11.762Z,3.07
2019-01-10T01:56:30.380Z,2.50
2019-01-10T02:01:48.996Z,3.00
2019-01-10T02:07:07.605Z,2.40
2019-01-10T02:12:26.174Z,2.63
2019-01-10T02:17:49.273Z,2.52
2019-01-10T02:23:05.118Z,3.12
2019-01-10T02:28:23.660Z,2.60
2019-01-10T02:34:01.483Z,2.70
2019-01-10T02:39:20.086Z,2.40
2019-01-10T02:44:38.627Z,2.23
2019-01-10T03:01:21.462Z,2.60
2019-01-10T03:06:40.066Z,2.40
2019-01-10T03:11:58.600Z,2.60
2019-01-10T03:17:17.238Z,2.10
2019-01-10T03:22:35.770Z,2.43
2019-01-10T03:27:54.229Z,2.37
2019-01-10T03:33:12.699Z,2.80
2019-01-10T03:44:03.732Z,2.80
2019-01-10T03:49:22.197Z,2.40
2019-01-10T03:54:40.733Z,2.97
2019-01-10T03:59:59.343Z,2.50
2019-01-10T04:05:18.058Z,2.50
2019-01-10T04:10:36.593Z,2.70
2019-01-10T04:15:55.137Z,2.63
2019-01-10T04:21:17.395Z,2.65
2019-01-10T04:26:33.956Z,2.90
2019-01-10T04:31:52.527Z,3.53
2019-01-10T04:37:11.065Z,3.20
2019-01-10T04:42:29.612Z,2.60
2019-01-10T04:47:48.393Z,2.50
2019-01-10T04:53:06.857Z,3.23
2019-01-10T04:58:25.396Z,2.63
2019-01-10T05:03:43.857Z,2.57
2019-01-10T05:14:31.681Z,3.03
2019-01-10T05:19:50.221Z,2.93
2019-01-10T05:31:01.971Z,3.03
2019-01-10T05:36:20.575Z,3.10
2019-01-10T05:41:39.182Z,2.60
2019-01-10T05:46:57.649Z,2.47
2019-01-10T05:52:16.199Z,3.20
2019-01-10T05:57:35.012Z,2.50
2019-01-10T06:08:24.055Z,2.93
2019-01-10T06:19:15.246Z,2.43
2019-01-10T06:24:33.706Z,3.47
2019-01-10T06:29:52.240Z,3.30
2019-01-10T06:35:10.946Z,2.77
2019-01-10T06:40:29.487Z,2.70
2019-01-10T06:45:48.092Z,3.30
2019-01-10T06:51:06.627Z,2.47
2019-01-10T06:56:25.157Z,3.50
2019-01-10T07:01:43.706Z,3.30
2019-01-10T07:07:02.169Z,3.47
2019-01-10T07:12:20.693Z,3.37
2019-01-10T07:17:39.155Z,3.00
2019-01-10T07:22:57.750Z,3.60
2019-01-10T07:28:35.319Z,3.23
2019-01-10T07:34:33.693Z,3.67
2019-01-10T07:40:11.417Z,3.40
2019-01-10T07:45:30.015Z,3.40
2019-01-10T07:56:19.001Z,4.30
2019-01-10T08:01:37.619Z,3.97
2019-01-10T08:06:56.159Z,4.00
2019-01-10T08:12:14.639Z,3.63
2019-01-10T08:17:33.177Z,3.87
2019-01-10T08:22:51.644Z,3.70
2019-01-10T08:28:10.197Z,3.40
2019-01-10T08:44:33.640Z,4.13
2019-01-10T08:49:52.003Z,3.87
2019-01-10T09:00:41.202Z,3.53
2019-01-10T09:06:07.871Z,3.60
2019-01-10T09:11:20.080Z,4.20
2019-01-10T09:16:39.061Z,3.33
2019-01-10T09:21:57.606Z,3.73
2019-01-10T09:27:16.137Z,4.10
2019-01-10T09:32:34.611Z,3.10
2019-01-10T09:37:53.139Z,4.03
2019-01-10T09:43:11.739Z,4.23
2019-01-10T09:54:00.862Z,3.93
2019-01-10T09:59:19.455Z,4.30
2019-01-10T10:04:38.094Z,4.03
2019-01-10T10:09:56.695Z,4.33
2019-01-10T10:15:55.063Z,3.98
2019-01-10T10:21:13.599Z,4.17
2019-01-10T10:26:32.400Z,4.00
2019-01-10T10:31:51.240Z,4.17
2019-01-10T10:37:09.901Z,4.27
2019-01-10T10:42:28.494Z,4.40
2019-01-10T10:47:47.030Z,4.13
2019-01-10T10:53:05.567Z,4.37
2019-01-10T10:58:24.107Z,4.53
2019-01-10T11:03:42.643Z,4.63
2019-01-10T11:09:09.054Z,4.43
2019-01-10T11:14:21.453Z,4.93
2019-01-10T11:19:39.914Z,5.70
2019-01-10T11:24:58.453Z,5.43
2019-01-10T11:30:56.826Z,5.42
2019-01-10T11:42:07.342Z,6.17
2019-01-10T11:47:25.949Z,6.75
2019-01-10T11:52:44.639Z,5.67
2019-01-10T11:58:03.087Z,7.03
2019-01-10T12:03:21.689Z,7.03
2019-01-10T12:08:40.226Z,7.40
2019-01-10T12:13:58.851Z,7.63
2019-01-10T12:25:09.088Z,4.60
2019-01-10T12:30:48.343Z,5.00
2019-01-10T12:36:06.898Z,4.83
2019-01-10T12:41:25.487Z,4.07
2019-01-10T12:46:44.335Z,4.77
2019-01-10T12:52:02.967Z,4.97
2019-01-10T12:57:21.445Z,4.93
2019-01-10T13:02:40.045Z,5.17
2019-01-10T13:08:03.673Z,4.90
2019-01-10T13:13:38.047Z,5.42
2019-01-10T13:19:16.038Z,5.33
2019-01-10T13:24:34.504Z,6.07
2019-01-10T13:29:53.045Z,5.33
2019-01-10T13:35:11.664Z,6.58
2019-01-10T13:40:30.209Z,5.83
2019-01-10T13:45:48.816Z,6.33
2019-01-10T13:51:07.415Z,5.77
2019-01-10T13:56:25.891Z,5.90
2019-01-10T14:02:03.544Z,5.50
2019-01-10T14:07:22.075Z,5.53
2019-01-10T14:12:40.613Z,5.57
2019-01-10T14:17:59.138Z,6.27
2019-01-10T14:23:17.608Z,4.87
2019-01-10T14:28:36.220Z,4.90
2019-01-10T14:33:54.686Z,5.13
2019-01-10T14:39:13.299Z,5.13
2019-01-10T14:45:11.668Z,5.23
2019-01-10T14:50:41.977Z,5.43
2019-01-10T14:56:00.590Z,5.03
2019-01-10T15:01:19.042Z,5.00
2019-01-10T15:06:37.586Z,4.97
2019-01-10T15:11:56.130Z,5.50
2019-01-10T15:17:14.609Z,5.43
2019-01-10T15:22:33.147Z,5.45
2019-01-10T15:27:51.761Z,5.40
2019-01-10T15:33:10.293Z,4.90
2019-01-10T15:38:29.061Z,5.37
2019-01-10T15:49:18.123Z,5.53
2019-01-10T15:54:36.649Z,4.77
2019-01-10T15:59:55.118Z,5.60
2019-01-10T16:05:13.800Z,5.87
2019-01-10T16:10:32.334Z,5.27
2019-01-10T16:15:50.945Z,5.73
2019-01-10T16:21:09.398Z,6.20
2019-01-10T16:26:28.142Z,5.70
2019-01-10T16:31:46.640Z,5.93
2019-01-10T16:37:05.257Z,6.50
2019-01-10T16:42:23.821Z,6.17
2019-01-10T16:48:22.195Z,6.03
2019-01-10T16:53:40.656Z,7.03
2019-01-10T16:58:59.191Z,6.93
2019-01-10T17:04:17.664Z,6.10
2019-01-10T17:09:36.130Z,5.83
2019-01-10T17:14:54.586Z,6.50
2019-01-10T17:20:32.395Z,6.12
2019-01-10T17:26:10.175Z,6.57
2019-01-10T17:31:29.541Z,7.03
2019-01-10T17:36:48.804Z,6.20
2019-01-10T17:47:43.913Z,6.13
2019-01-10T17:53:00.064Z,7.13
2019-01-10T17:58:18.613Z,6.67
2019-01-10T18:03:40.354Z,7.03
2019-01-10T18:14:47.114Z,7.47
2019-01-10T18:20:45.650Z,8.10
2019-01-10T18:26:23.550Z,7.27
2019-01-10T18:31:42.243Z,6.40
2019-01-10T18:37:00.776Z,7.47
2019-01-10T18:42:19.332Z,7.40
2019-01-10T18:47:38.258Z,8.23
2019-01-10T18:52:56.840Z,7.73
2019-01-10T18:58:15.452Z,8.63
2019-01-10T19:03:34.055Z,7.97
2019-01-10T19:08:52.516Z,8.27
2019-01-10T19:14:11.191Z,8.63
2019-01-10T19:19:29.731Z,8.43
2019-01-10T19:24:48.203Z,8.93
2019-01-10T19:30:46.578Z,8.57
2019-01-10T19:36:45.060Z,9.70
2019-01-10T19:42:03.648Z,8.03
2019-01-10T19:47:22.241Z,8.03
2019-01-10T19:52:40.787Z,9.20
2019-01-10T19:57:59.677Z,8.83
2019-01-10T20:03:18.280Z,9.07
2019-01-10T20:08:36.823Z,8.70
2019-01-10T20:13:55.358Z,8.63
2019-01-10T20:24:46.046Z,8.20
2019-01-10T20:30:44.430Z,8.00
2019-01-10T20:36:02.964Z,6.70
2019-01-10T20:41:21.506Z,9.70
2019-01-10T20:46:40.368Z,8.17
2019-01-10T20:51:58.912Z,7.53
2019-01-10T20:57:17.459Z,7.63
2019-01-10T21:02:36.073Z,8.13
2019-01-10T21:07:54.826Z,9.33
2019-01-10T21:13:32.629Z,8.67
2019-01-10T21:24:23.322Z,8.60
2019-01-10T21:29:41.794Z,8.18
2019-01-10T21:35:00.339Z,10.43
2019-01-10T21:40:58.958Z,9.87
2019-01-10T21:52:08.566Z,7.57
2019-01-10T21:57:30.506Z,7.13
2019-01-10T22:02:47.679Z,7.62
2019-01-10T22:13:38.871Z,6.92
2019-01-10T22:18:57.338Z,8.47
2019-01-10T22:24:15.890Z,7.53
2019-01-10T22:29:34.439Z,9.13
2019-01-10T22:34:53.046Z,8.38
2019-01-10T22:40:51.437Z,9.50
2019-01-10T22:46:10.058Z,11.20
2019-01-10T22:51:28.524Z,11.87
2019-01-10T22:56:47.140Z,13.57
2019-01-10T23:07:57.030Z,12.60
2019-01-10T23:13:15.561Z,12.97
2019-01-10T23:19:13.951Z,13.40
2019-01-10T23:24:32.494Z,17.03
2019-01-10T23:29:50.965Z,16.77
2019-01-10T23:35:09.437Z,15.80
2019-01-10T23:46:00.576Z,12.23
2019-01-10T23:51:19.205Z,12.63
2019-01-10T23:56:37.663Z,9.93
